createdAt,value
2023-02-12T00:00:07.265Z,18.75
2023-02-12T00:02:34.175Z,17.45
2023-02-12T00:05:01.165Z,17.88
2023-02-12T00:07:31.379Z,17.92
2023-02-12T00:09:58.309Z,17.95
2023-02-12T00:12:25.196Z,17.92
2023-02-12T00:14:51.989Z,16.75
2023-02-12T00:17:18.846Z,18.25
2023-02-12T00:19:48.005Z,17.95
2023-02-12T00:22:14.792Z,16.75
2023-02-12T00:24:41.661Z,16.70
2023-02-12T00:27:08.563Z,18.13
2023-02-12T00:29:35.504Z,10.85
2023-02-12T00:32:02.450Z,13.88
2023-02-12T00:34:29.402Z,8.85
2023-02-12T00:36:56.284Z,7.50
2023-02-12T00:39:23.109Z,7.80
2023-02-12T00:41:49.989Z,5.53
2023-02-12T00:44:16.953Z,5.60
2023-02-12T00:46:43.851Z,5.72
2023-02-12T00:49:10.758Z,6.28
2023-02-12T00:51:37.630Z,6.60
2023-02-12T00:54:04.593Z,6.50
2023-02-12T00:56:31.606Z,6.47
2023-02-12T00:58:58.668Z,7.13
2023-02-12T01:01:25.707Z,9.70
2023-02-12T01:03:52.830Z,10.57
2023-02-12T01:06:19.682Z,10.65
2023-02-12T01:08:46.520Z,11.60
2023-02-12T01:11:14.286Z,11.32
2023-02-12T01:13:41.101Z,14.40
2023-02-12T01:16:22.289Z,18.65
2023-02-12T01:18:49.658Z,28.55
2023-02-12T01:21:20.306Z,13.98
2023-02-12T01:23:47.890Z,13.73
2023-02-12T01:26:16.605Z,13.75
2023-02-12T01:28:45.118Z,13.70
2023-02-12T01:31:33.112Z,14.18
2023-02-12T01:34:01.042Z,13.70
2023-02-12T01:36:29.620Z,13.80
2023-02-12T01:38:58.100Z,11.52
2023-02-12T01:41:37.341Z,12.88
2023-02-12T01:44:16.196Z,12.82
2023-02-12T01:46:45.477Z,13.27
2023-02-12T01:49:35.040Z,12.82
2023-02-12T01:52:08.160Z,12.13
2023-02-12T01:54:37.355Z,11.18
2023-02-12T01:57:06.347Z,9.95
2023-02-12T01:59:35.194Z,10.68
2023-02-12T02:02:02.921Z,8.52
2023-02-12T02:04:34.551Z,7.13
2023-02-12T02:07:06.515Z,5.88
2023-02-12T02:09:36.616Z,6.80
2023-02-12T02:12:22.311Z,6.78
2023-02-12T02:14:50.966Z,6.57
2023-02-12T02:17:25.292Z,6.05
2023-02-12T02:20:04.068Z,6.57
2023-02-12T02:22:38.169Z,6.97
2023-02-12T02:25:23.596Z,7.18
2023-02-12T02:28:11.635Z,8.02
2023-02-12T02:31:08.875Z,9.00
2023-02-12T02:34:00.630Z,8.77
2023-02-12T02:36:59.583Z,9.02
2023-02-12T02:39:50.407Z,9.23
2023-02-12T02:42:22.442Z,9.15
2023-02-12T02:44:55.792Z,8.90
2023-02-12T02:47:30.747Z,11.20
2023-02-12T02:50:11.086Z,10.32
2023-02-12T02:52:50.406Z,10.70
2023-02-12T02:55:19.297Z,10.20
2023-02-12T02:58:01.329Z,10.80
2023-02-12T03:00:32.977Z,11.38
2023-02-12T03:03:09.461Z,11.77
2023-02-12T03:05:42.118Z,11.60
2023-02-12T03:08:24.134Z,12.70
2023-02-12T03:11:05.077Z,12.38
2023-02-12T03:13:43.490Z,12.82
2023-02-12T03:16:15.198Z,12.40
2023-02-12T03:18:48.097Z,12.80
2023-02-12T03:21:19.647Z,12.43
2023-02-12T03:24:03.422Z,13.90
2023-02-12T03:26:49.836Z,13.75
2023-02-12T03:29:16.979Z,14.18
2023-02-12T03:32:05.655Z,14.27
2023-02-12T03:34:38.218Z,12.15
2023-02-12T03:37:17.880Z,11.55
2023-02-12T03:39:56.791Z,11.98
2023-02-12T03:42:52.200Z,11.45
2023-02-12T03:45:30.936Z,10.95
2023-02-12T03:48:03.738Z,11.35
2023-02-12T03:50:45.806Z,13.07
2023-02-12T03:53:13.219Z,11.73
2023-02-12T03:55:45.335Z,11.65
2023-02-12T03:58:18.429Z,12.88
2023-02-12T04:00:45.838Z,13.40
2023-02-12T04:03:12.707Z,13.75
2023-02-12T04:05:39.720Z,13.60
2023-02-12T04:08:09.572Z,12.57
2023-02-12T04:11:02.910Z,13.57
2023-02-12T04:14:05.638Z,14.75
2023-02-12T04:16:51.166Z,13.70
2023-02-12T04:19:30.874Z,14.27
2023-02-12T04:22:06.880Z,15.60
2023-02-12T04:24:57.539Z,15.10
2023-02-12T04:27:43.343Z,13.68
2023-02-12T04:32:55.840Z,14.30
2023-02-12T04:35:37.311Z,15.60
2023-02-12T04:38:16.944Z,14.50
2023-02-12T04:40:44.644Z,15.20
2023-02-12T04:43:11.520Z,15.15
2023-02-12T04:45:39.119Z,14.95
2023-02-12T04:48:06.681Z,15.07
2023-02-12T04:50:40.591Z,15.68
2023-02-12T04:53:08.239Z,16.88
2023-02-12T04:55:36.346Z,18.30
2023-02-12T04:58:03.979Z,18.63
2023-02-12T05:00:30.837Z,17.90
2023-02-12T05:02:57.770Z,19.05
2023-02-12T05:05:24.753Z,18.23
2023-02-12T05:07:51.606Z,19.13
2023-02-12T05:10:18.663Z,20.40
2023-02-12T05:12:45.562Z,19.70
2023-02-12T05:15:12.508Z,18.90
2023-02-12T05:17:39.509Z,18.75
2023-02-12T05:20:06.883Z,20.75
2023-02-12T05:22:33.993Z,21.45
2023-02-12T05:25:00.845Z,20.40
2023-02-12T05:27:27.725Z,21.30
2023-02-12T05:29:54.568Z,20.70
2023-02-12T05:32:21.396Z,22.35
2023-02-12T05:34:48.387Z,15.73
2023-02-12T05:37:15.280Z,21.80
2023-02-12T05:39:42.148Z,18.30
2023-02-12T05:42:09.005Z,17.00
2023-02-12T05:44:35.913Z,18.33
2023-02-12T05:47:02.835Z,18.58
2023-02-12T05:49:29.829Z,20.15
2023-02-12T05:51:56.659Z,19.17
2023-02-12T05:54:23.517Z,20.60
2023-02-12T05:56:50.405Z,18.58
2023-02-12T05:59:21.701Z,21.20
2023-02-12T06:01:51.157Z,20.05
2023-02-12T06:04:24.595Z,22.20
2023-02-12T06:06:55.960Z,19.52
2023-02-12T06:09:23.803Z,18.50
2023-02-12T06:11:50.622Z,14.38
2023-02-12T06:14:20.520Z,13.13
2023-02-12T06:16:50.785Z,13.50
2023-02-12T06:19:19.399Z,15.27
2023-02-12T06:21:46.656Z,14.45
2023-02-12T06:24:15.637Z,12.07
2023-02-12T06:26:43.183Z,12.65
2023-02-12T06:29:10.337Z,12.73
2023-02-12T06:31:38.113Z,12.68
2023-02-12T06:34:08.323Z,11.50
2023-02-12T06:36:38.169Z,12.70
2023-02-12T06:39:05.583Z,11.82
2023-02-12T06:41:32.665Z,12.05
2023-02-12T06:43:59.627Z,11.93
2023-02-12T06:46:26.939Z,12.23
2023-02-12T06:48:55.770Z,11.77
2023-02-12T06:51:23.737Z,12.48
2023-02-12T06:53:52.374Z,17.75
2023-02-12T06:56:20.564Z,18.63
2023-02-12T06:58:54.065Z,18.83
2023-02-12T07:01:23.730Z,19.13
2023-02-12T07:03:53.532Z,17.75
2023-02-12T07:06:21.658Z,17.35
2023-02-12T07:08:48.697Z,16.13
2023-02-12T07:11:16.096Z,16.38
2023-02-12T07:13:44.098Z,20.52
2023-02-12T07:16:14.581Z,19.33
2023-02-12T07:18:42.236Z,16.67
2023-02-12T07:21:11.004Z,20.05
2023-02-12T07:23:38.157Z,27.92
2023-02-12T07:26:15.265Z,22.67
2023-02-12T07:28:42.953Z,24.65
2023-02-12T07:31:18.901Z,23.52
2023-02-12T07:33:46.425Z,20.90
2023-02-12T07:36:16.026Z,20.27
2023-02-12T07:38:43.186Z,18.30
2023-02-12T07:41:22.508Z,14.95
2023-02-12T07:43:54.736Z,15.60
2023-02-12T07:46:30.020Z,14.85
2023-02-12T07:48:59.229Z,15.23
2023-02-12T07:51:27.087Z,16.80
2023-02-12T07:53:54.799Z,16.70
2023-02-12T07:56:24.666Z,17.42
2023-02-12T07:58:53.754Z,17.05
2023-02-12T08:01:29.856Z,16.65
2023-02-12T08:06:37.643Z,16.38
2023-02-12T08:09:07.143Z,16.60
2023-02-12T08:11:34.192Z,15.50
2023-02-12T08:14:01.566Z,14.93
2023-02-12T08:16:30.014Z,12.32
2023-02-12T08:19:07.313Z,14.25
2023-02-12T08:21:41.958Z,12.60
2023-02-12T08:24:10.660Z,9.15
2023-02-12T08:26:38.960Z,10.40
2023-02-12T08:29:07.068Z,9.35
2023-02-12T08:31:36.811Z,10.05
2023-02-12T08:34:03.940Z,9.93
2023-02-12T08:36:38.167Z,10.18
2023-02-12T08:39:08.793Z,9.98
2023-02-12T08:41:35.864Z,9.80
2023-02-12T08:44:05.065Z,9.95
2023-02-12T08:46:35.385Z,9.68
2023-02-12T08:49:12.278Z,9.73
2023-02-12T08:51:42.062Z,10.45
2023-02-12T08:54:15.060Z,11.57
2023-02-12T08:56:42.845Z,12.98
2023-02-12T08:59:11.752Z,11.50
2023-02-12T09:01:42.006Z,12.02
2023-02-12T09:04:17.758Z,12.60
2023-02-12T09:06:46.272Z,11.73
2023-02-12T09:09:13.545Z,10.95
2023-02-12T09:11:40.560Z,9.70
2023-02-12T09:14:11.284Z,10.50
2023-02-12T09:16:39.652Z,11.90
2023-02-12T09:19:07.321Z,15.20
2023-02-12T09:21:34.340Z,14.15
2023-02-12T09:24:02.690Z,10.75
2023-02-12T09:26:29.653Z,11.75
2023-02-12T09:28:56.909Z,10.07
2023-02-12T09:31:29.467Z,10.90
2023-02-12T09:34:00.499Z,10.77
2023-02-12T09:36:27.859Z,12.27
2023-02-12T09:38:55.060Z,11.90
2023-02-12T09:41:38.852Z,12.18
2023-02-12T09:44:40.859Z,11.10
2023-02-12T09:47:17.347Z,10.45
2023-02-12T09:50:21.372Z,11.25
2023-02-12T09:52:49.441Z,11.43
2023-02-12T09:55:19.181Z,11.57
2023-02-12T09:57:46.596Z,11.57
2023-02-12T10:00:29.027Z,12.05
2023-02-12T10:02:56.238Z,11.75
2023-02-12T10:05:28.745Z,12.38
2023-02-12T10:08:10.776Z,11.85
2023-02-12T10:10:56.166Z,13.23
2023-02-12T10:13:33.705Z,12.73
2023-02-12T10:16:15.271Z,12.10
2023-02-12T10:19:13.376Z,12.65
2023-02-12T10:22:06.485Z,12.43
2023-02-12T10:24:49.289Z,12.98
2023-02-12T10:27:19.016Z,13.23
2023-02-12T10:29:48.876Z,13.13
2023-02-12T10:32:36.907Z,14.18
2023-02-12T10:35:14.601Z,13.35
2023-02-12T10:38:04.562Z,12.70
2023-02-12T10:40:37.714Z,12.73
2023-02-12T10:43:04.737Z,14.02
2023-02-12T10:45:33.623Z,13.05
2023-02-12T10:48:15.095Z,13.80
2023-02-12T10:51:03.871Z,14.27
2023-02-12T10:53:38.216Z,13.88
2023-02-12T10:56:20.180Z,13.75
2023-02-12T10:58:50.129Z,14.00
2023-02-12T11:01:18.298Z,13.45
2023-02-12T11:03:45.317Z,12.73
2023-02-12T11:06:28.252Z,12.90
2023-02-12T11:08:56.087Z,13.63
2023-02-12T11:11:30.727Z,13.30
2023-02-12T11:14:20.399Z,14.52
2023-02-12T11:16:53.177Z,14.05
2023-02-12T11:19:23.546Z,14.52
2023-02-12T11:21:51.681Z,15.00
2023-02-12T11:24:33.894Z,14.93
2023-02-12T11:27:16.088Z,16.02
2023-02-12T11:29:44.606Z,14.13
2023-02-12T11:32:20.103Z,14.63
2023-02-12T11:35:13.089Z,16.00
2023-02-12T11:37:43.474Z,14.88
2023-02-12T11:40:21.708Z,15.35
2023-02-12T11:42:56.160Z,15.95
2023-02-12T11:45:32.402Z,15.73
2023-02-12T11:47:59.439Z,15.73
2023-02-12T11:50:30.039Z,15.55
2023-02-12T11:53:08.154Z,14.88
2023-02-12T11:55:38.350Z,15.27
2023-02-12T11:58:27.258Z,15.45
2023-02-12T12:00:57.015Z,15.20
2023-02-12T12:03:44.894Z,15.30
2023-02-12T12:06:29.872Z,14.60
2023-02-12T12:09:02.642Z,16.23
2023-02-12T12:11:33.191Z,15.52
2023-02-12T12:14:22.593Z,15.25
2023-02-12T12:17:24.867Z,15.52
2023-02-12T12:20:04.413Z,17.95
2023-02-12T12:22:49.392Z,17.05
2023-02-12T12:25:28.601Z,16.40
2023-02-12T12:28:08.082Z,17.00
2023-02-12T12:31:07.470Z,16.67
2023-02-12T12:33:34.299Z,17.92
2023-02-12T12:36:25.268Z,17.33
2023-02-12T12:39:14.642Z,16.77
2023-02-12T12:42:02.592Z,17.05
2023-02-12T12:44:47.220Z,18.30
2023-02-12T12:47:32.924Z,18.23
2023-02-12T12:53:12.997Z,16.98
2023-02-12T12:55:58.614Z,17.83
2023-02-12T12:58:43.761Z,17.50
2023-02-12T13:01:45.627Z,17.08
2023-02-12T13:04:31.302Z,17.38
2023-02-12T13:07:10.334Z,16.58
2023-02-12T13:09:55.815Z,17.92
2023-02-12T13:12:45.488Z,18.08
2023-02-12T13:15:15.493Z,17.45
2023-02-12T13:18:11.851Z,17.65
2023-02-12T13:20:51.082Z,17.33
2023-02-12T13:23:20.765Z,17.80
2023-02-12T13:25:50.334Z,18.00
2023-02-12T13:28:33.886Z,16.65
2023-02-12T13:31:09.474Z,17.25
2023-02-12T13:33:49.119Z,17.10
2023-02-12T13:36:16.284Z,16.98
2023-02-12T13:39:08.370Z,18.35
2023-02-12T13:41:36.221Z,18.50
2023-02-12T13:44:33.367Z,17.95
2023-02-12T13:47:12.744Z,18.00
2023-02-12T13:49:57.969Z,18.13
2023-02-12T13:52:44.745Z,17.67
2023-02-12T13:55:23.355Z,17.75
2023-02-12T13:58:27.837Z,16.55
2023-02-12T14:01:14.792Z,16.98
2023-02-12T14:03:41.835Z,17.08
2023-02-12T14:06:18.755Z,17.00
2023-02-12T14:08:52.693Z,17.60
2023-02-12T14:11:24.489Z,17.60
2023-02-12T14:13:56.633Z,17.45
2023-02-12T14:16:29.660Z,17.73
2023-02-12T14:19:33.919Z,17.00
2023-02-12T14:22:02.563Z,18.20
2023-02-12T14:24:38.263Z,18.33
2023-02-12T14:27:17.734Z,17.20
2023-02-12T14:30:09.902Z,20.30
2023-02-12T14:32:58.310Z,17.42
2023-02-12T14:35:46.252Z,17.65
2023-02-12T14:38:15.974Z,16.67
2023-02-12T14:40:50.488Z,17.35
2023-02-12T14:44:01.837Z,17.90
2023-02-12T14:46:28.709Z,17.95
2023-02-12T14:48:59.175Z,17.48
2023-02-12T14:51:45.574Z,17.70
2023-02-12T14:54:34.843Z,17.02
2023-02-12T14:57:27.919Z,16.75
2023-02-12T15:00:16.446Z,17.60
2023-02-12T15:02:51.814Z,16.73
2023-02-12T15:05:32.452Z,16.40
2023-02-12T15:08:16.921Z,16.05
2023-02-12T15:10:57.115Z,17.55
2023-02-12T15:13:30.317Z,17.77
2023-02-12T15:16:14.961Z,17.50
2023-02-12T15:18:42.020Z,16.45
2023-02-12T15:21:23.958Z,17.85
2023-02-12T15:24:12.122Z,17.52
2023-02-12T15:26:47.313Z,17.67
2023-02-12T15:29:41.665Z,18.47
2023-02-12T15:32:16.040Z,17.52
2023-02-12T15:34:44.873Z,18.55
2023-02-12T15:37:22.710Z,18.08
2023-02-12T15:39:53.440Z,18.20
2023-02-12T15:42:40.435Z,18.77
2023-02-12T15:45:17.903Z,17.90
2023-02-12T15:47:46.356Z,19.25
2023-02-12T15:50:14.945Z,18.42
2023-02-12T15:52:46.182Z,18.77
2023-02-12T15:55:22.727Z,19.23
2023-02-12T15:57:58.581Z,19.08
2023-02-12T16:00:44.407Z,20.17
2023-02-12T16:03:23.387Z,19.63
2023-02-12T16:05:51.599Z,19.30
2023-02-12T16:08:21.540Z,20.02
2023-02-12T16:10:52.406Z,20.95
2023-02-12T16:13:27.307Z,20.35
2023-02-12T16:16:12.563Z,20.55
2023-02-12T16:18:41.244Z,20.55
2023-02-12T16:21:20.961Z,20.65
2023-02-12T16:23:50.265Z,20.60
2023-02-12T16:26:23.524Z,20.48
2023-02-12T16:28:54.202Z,23.60
2023-02-12T16:31:24.626Z,21.58
2023-02-12T16:33:55.589Z,21.75
2023-02-12T16:36:25.304Z,21.40
2023-02-12T16:38:54.482Z,20.98
2023-02-12T16:41:27.077Z,20.77
2023-02-12T16:44:02.915Z,22.85
2023-02-12T16:46:34.403Z,20.95
2023-02-12T16:49:03.331Z,21.98
2023-02-12T16:51:35.776Z,21.75
2023-02-12T16:54:05.038Z,22.25
2023-02-12T16:56:37.934Z,23.33
2023-02-12T16:59:05.172Z,23.55
2023-02-12T17:01:37.028Z,22.52
2023-02-12T17:04:12.166Z,22.75
2023-02-12T17:06:39.041Z,22.58
2023-02-12T17:09:05.864Z,23.15
2023-02-12T17:11:32.742Z,22.30
2023-02-12T17:13:59.656Z,22.98
2023-02-12T17:16:31.507Z,22.70
2023-02-12T17:19:00.198Z,23.45
2023-02-12T17:21:38.350Z,24.00
2023-02-12T17:24:22.678Z,23.85
2023-02-12T17:26:50.657Z,23.77
2023-02-12T17:29:19.428Z,24.85
2023-02-12T17:31:48.009Z,24.65
2023-02-12T17:34:15.632Z,25.33
2023-02-12T17:36:42.960Z,26.27
2023-02-12T17:39:12.353Z,24.48
2023-02-12T17:41:40.651Z,24.75
2023-02-12T17:44:07.977Z,25.95
2023-02-12T17:46:35.224Z,24.95
2023-02-12T17:49:03.352Z,26.50
2023-02-12T17:51:30.155Z,28.38
2023-02-12T17:53:57.026Z,27.02
2023-02-12T17:56:25.727Z,26.67
2023-02-12T17:58:52.911Z,25.83
2023-02-12T18:01:22.880Z,25.65
2023-02-12T18:03:52.374Z,26.23
2023-02-12T18:06:26.637Z,25.35
2023-02-12T18:08:54.296Z,25.58
2023-02-12T18:11:21.522Z,27.60
2023-02-12T18:13:48.393Z,27.42
2023-02-12T18:16:15.700Z,26.65
2023-02-12T18:18:42.580Z,26.80
2023-02-12T18:21:11.368Z,28.42
2023-02-12T18:23:38.957Z,27.50
2023-02-12T18:26:15.013Z,27.25
2023-02-12T18:28:42.824Z,27.50
2023-02-12T18:31:10.964Z,29.63
2023-02-12T18:33:38.720Z,28.67
2023-02-12T18:36:11.730Z,30.30
2023-02-12T18:38:41.115Z,28.88
2023-02-12T18:41:07.974Z,29.02
2023-02-12T18:43:36.122Z,28.50
2023-02-12T18:46:20.832Z,28.65
2023-02-12T18:48:47.764Z,28.35
2023-02-12T18:51:17.958Z,28.30
2023-02-12T18:53:46.408Z,29.17
2023-02-12T18:56:13.674Z,28.05
2023-02-12T18:58:40.975Z,27.98
2023-02-12T19:01:19.230Z,27.90
2023-02-12T19:03:48.680Z,30.35
2023-02-12T19:06:15.560Z,30.67
2023-02-12T19:08:42.463Z,29.95
2023-02-12T19:11:10.732Z,30.15
2023-02-12T19:13:38.267Z,29.92
2023-02-12T19:16:13.699Z,29.67
2023-02-12T19:18:40.954Z,29.38
2023-02-12T19:21:10.791Z,29.60
2023-02-12T19:23:38.375Z,30.23
2023-02-12T19:26:08.242Z,29.25
2023-02-12T19:28:35.795Z,27.85
2023-02-12T19:31:21.973Z,28.83
2023-02-12T19:33:49.963Z,27.85
2023-02-12T19:36:19.879Z,28.67
2023-02-12T19:38:48.322Z,28.77
2023-02-12T19:41:20.854Z,28.95
2023-02-12T19:43:48.406Z,28.58
2023-02-12T19:46:18.387Z,29.52
2023-02-12T19:48:47.108Z,29.90
2023-02-12T19:51:16.540Z,28.52
2023-02-12T19:53:43.995Z,28.65
2023-02-12T19:56:10.990Z,29.70
2023-02-12T19:58:38.817Z,28.63
2023-02-12T20:01:17.529Z,28.55
2023-02-12T20:03:46.132Z,28.83
2023-02-12T20:06:16.659Z,28.30
2023-02-12T20:08:44.395Z,32.65
2023-02-12T20:11:14.945Z,29.98
2023-02-12T20:13:42.754Z,30.13
2023-02-12T20:16:16.305Z,30.00
2023-02-12T20:18:48.355Z,30.05
2023-02-12T20:21:22.354Z,28.33
2023-02-12T20:23:49.839Z,29.95
2023-02-12T20:26:19.709Z,29.63
2023-02-12T20:28:47.596Z,30.60
2023-02-12T20:31:25.463Z,28.35
2023-02-12T20:34:01.010Z,29.73
2023-02-12T20:36:31.691Z,30.60
2023-02-12T20:38:59.232Z,29.13
2023-02-12T20:41:27.517Z,29.58
2023-02-12T20:43:55.396Z,28.73
2023-02-12T20:46:23.639Z,29.70
2023-02-12T20:48:50.683Z,31.13
2023-02-12T20:51:19.897Z,28.75
2023-02-12T20:53:47.121Z,30.60
2023-02-12T20:56:24.903Z,29.60
2023-02-12T20:58:52.724Z,30.50
2023-02-12T21:01:24.032Z,30.45
2023-02-12T21:03:52.683Z,31.67
2023-02-12T21:06:21.331Z,30.35
2023-02-12T21:08:52.542Z,29.63
2023-02-12T21:11:22.736Z,30.60
2023-02-12T21:13:58.764Z,32.00
2023-02-12T21:16:30.671Z,30.08
2023-02-12T21:18:57.671Z,31.35
2023-02-12T21:21:29.051Z,31.73
2023-02-12T21:23:58.157Z,31.13
2023-02-12T21:26:27.284Z,31.58
2023-02-12T21:28:57.323Z,30.77
2023-02-12T21:31:27.417Z,30.80
2023-02-12T21:33:55.718Z,32.30
2023-02-12T21:36:30.434Z,32.78
2023-02-12T21:38:58.203Z,32.67
2023-02-12T21:41:35.753Z,30.42
2023-02-12T21:44:14.069Z,30.88
2023-02-12T21:46:41.380Z,29.85
2023-02-12T21:49:08.448Z,30.83
2023-02-12T21:51:39.658Z,32.35
2023-02-12T21:54:09.954Z,30.50
2023-02-12T21:56:38.099Z,31.42
2023-02-12T21:59:05.805Z,30.05
2023-02-12T22:01:35.714Z,32.05
2023-02-12T22:04:06.862Z,30.52
2023-02-12T22:06:37.715Z,31.40
2023-02-12T22:09:07.934Z,32.00
2023-02-12T22:11:39.571Z,31.60
2023-02-12T22:14:08.329Z,30.77
2023-02-12T22:16:36.472Z,31.08
2023-02-12T22:19:04.939Z,32.08
2023-02-12T22:21:38.695Z,30.33
2023-02-12T22:24:07.652Z,31.73
2023-02-12T22:26:34.714Z,30.95
2023-02-12T22:29:09.643Z,32.90
2023-02-12T22:31:38.627Z,31.13
2023-02-12T22:34:09.830Z,30.83
2023-02-12T22:36:37.704Z,32.72
2023-02-12T22:39:05.684Z,31.85
2023-02-12T22:41:33.234Z,31.90
2023-02-12T22:44:01.830Z,30.75
2023-02-12T22:46:28.801Z,34.80
2023-02-12T22:48:55.724Z,32.40
2023-02-12T22:51:29.306Z,32.35
2023-02-12T22:53:56.884Z,30.98
2023-02-12T22:56:24.893Z,31.95
2023-02-12T22:59:00.048Z,32.97
2023-02-12T23:01:27.948Z,34.83
2023-02-12T23:03:55.450Z,32.13
2023-02-12T23:06:25.912Z,33.20
2023-02-12T23:08:55.549Z,32.00
2023-02-12T23:11:24.476Z,31.88
2023-02-12T23:13:52.126Z,31.95
2023-02-12T23:16:19.378Z,32.08
2023-02-12T23:18:46.655Z,32.03
2023-02-12T23:21:14.236Z,31.98
2023-02-12T23:23:41.252Z,31.77
2023-02-12T23:26:08.027Z,32.58
2023-02-12T23:28:34.923Z,30.45
2023-02-12T23:31:02.368Z,32.97
2023-02-12T23:33:29.402Z,34.28
2023-02-12T23:35:56.278Z,30.63
2023-02-12T23:38:23.103Z,34.10
2023-02-12T23:40:49.942Z,32.88
2023-02-12T23:43:16.882Z,31.75
2023-02-12T23:45:45.007Z,32.60
2023-02-12T23:48:12.063Z,33.78
2023-02-12T23:50:39.609Z,33.00
2023-02-12T23:53:06.831Z,31.45
2023-02-12T23:55:36.845Z,33.70
2023-02-12T23:58:04.915Z,34.88
